Time;durP1;ratioP1;P1;durP2;ratioP2;P2;SDS_P1;SDS_P2;PMS_P1;PMS_P2;Temp;Humidity;BMP_temperature;BMP_pressure;BME280_temperature;BME280_humidity;BME280_pressure;Samples;Min_cycle;Max_cycle;Signal;HPM_P1;HPM_P2
2021/12/11 00:00:09;;;;;;;19.33;15.57;;;0.80;99.90;;;;;;2610164;54;20448;-76
2021/12/11 00:02:39;;;;;;;23.73;17.50;;;0.70;99.90;;;;;;2611458;54;20426;-75
2021/12/11 00:05:05;;;;;;;27.70;17.73;;;0.60;99.90;;;;;;2614248;54;20419;-75
2021/12/11 00:07:31;;;;;;;25.40;16.40;;;0.70;99.90;;;;;;2612258;54;20435;-77
2021/12/11 00:10:05;;;;;;;20.03;16.90;;;0.80;99.90;;;;;;2613851;54;20514;-76
2021/12/11 00:12:45;;;;;;;18.00;16.00;;;1.10;99.90;;;;;;2613697;47;20430;-76
2021/12/11 00:15:13;;;;;;;19.73;16.57;;;1.30;99.90;;;;;;2615112;54;20402;-76
2021/12/11 00:17:43;;;;;;;21.17;17.67;;;1.20;99.90;;;;;;2614715;54;20511;-76
2021/12/11 00:20:17;;;;;;;17.80;15.77;;;1.00;99.90;;;;;;2613078;54;20412;-78
2021/12/11 00:22:44;;;;;;;18.97;15.60;;;0.60;99.90;;;;;;2609923;47;20438;-75
2021/12/11 00:25:12;;;;;;;17.40;15.30;;;1.00;99.90;;;;;;2612439;47;20390;-77
2021/12/11 00:27:41;;;;;;;24.70;15.40;;;1.10;99.90;;;;;;2613725;47;20420;-75
2021/12/11 00:30:11;;;;;;;21.73;16.63;;;0.80;99.90;;;;;;2613259;47;20438;-77
2021/12/11 00:32:38;;;;;;;18.03;16.07;;;0.70;99.90;;;;;;2612643;54;20487;-75
2021/12/11 00:35:12;;;;;;;19.20;15.20;;;0.80;99.90;;;;;;2613604;54;20442;-75
2021/12/11 00:37:39;;;;;;;21.53;16.93;;;0.90;99.90;;;;;;2613901;54;20420;-75
2021/12/11 00:40:18;;;;;;;20.70;17.20;;;1.10;99.90;;;;;;2613108;54;20601;-76
2021/12/11 00:42:56;;;;;;;20.00;16.57;;;0.90;99.90;;;;;;2613891;54;20410;-75
2021/12/11 00:45:26;;;;;;;18.77;16.33;;;0.80;99.90;;;;;;2615335;47;20433;-76
2021/12/11 00:47:57;;;;;;;21.70;15.50;;;1.00;99.90;;;;;;2614857;46;20439;-76
2021/12/11 00:50:27;;;;;;;18.80;15.97;;;1.00;99.90;;;;;;2614680;54;20441;-77
2021/12/11 00:53:15;;;;;;;23.10;16.90;;;1.10;99.90;;;;;;2613309;54;21001;-77
2021/12/11 00:55:50;;;;;;;23.33;16.33;;;0.90;99.90;;;;;;2613985;47;20417;-75
2021/12/11 00:58:19;;;;;;;17.63;15.57;;;0.70;99.90;;;;;;2610854;54;20390;-76
2021/12/11 01:01:09;;;;;;;17.70;15.40;;;0.50;99.90;;;;;;2610537;54;20403;-76
2021/12/11 01:03:37;;;;;;;18.90;16.30;;;0.80;99.90;;;;;;2615010;54;20502;-76
2021/12/11 01:06:20;;;;;;;22.70;16.93;;;0.90;99.90;;;;;;2612726;54;20439;-78
2021/12/11 01:08:54;;;;;;;21.20;14.87;;;0.60;99.90;;;;;;2614233;39;20497;-74
2021/12/11 01:11:23;;;;;;;24.80;15.63;;;0.70;99.90;;;;;;2613322;54;21090;-76
2021/12/11 01:14:06;;;;;;;22.93;15.77;;;0.70;99.90;;;;;;2614374;54;20425;-76
2021/12/11 01:16:33;;;;;;;22.40;17.07;;;0.90;99.90;;;;;;2613927;54;21473;-74
2021/12/11 01:19:03;;;;;;;21.20;15.83;;;0.80;99.90;;;;;;2613649;54;20508;-76
2021/12/11 01:24:14;;;;;;;20.10;15.53;;;0.80;99.90;;;;;;2613604;47;20435;-76
2021/12/11 01:26:49;;;;;;;17.57;15.10;;;0.70;99.90;;;;;;2615325;47;20406;-75
2021/12/11 01:29:19;;;;;;;17.47;15.17;;;0.60;99.90;;;;;;2614656;39;20965;-77
2021/12/11 01:31:46;;;;;;;18.07;15.50;;;0.50;99.90;;;;;;2614353;47;20409;-75
2021/12/11 01:34:12;;;;;;;22.67;15.50;;;0.00;99.90;;;;;;2612306;47;20397;-75
2021/12/11 01:36:40;;;;;;;25.70;15.87;;;0.10;99.90;;;;;;2613574;54;20406;-77
2021/12/11 01:39:14;;;;;;;18.77;16.87;;;-0.10;99.90;;;;;;2613732;46;20427;-77
2021/12/11 01:41:41;;;;;;;23.03;16.00;;;0.10;99.90;;;;;;2611719;54;20950;-74
2021/12/11 01:44:14;;;;;;;20.00;14.60;;;0.50;99.90;;;;;;2614738;39;20839;-75
2021/12/11 01:46:41;;;;;;;18.97;15.90;;;0.60;99.90;;;;;;2612129;39;20838;-74
2021/12/11 01:49:13;;;;;;;25.70;15.27;;;0.40;99.90;;;;;;2613514;54;20403;-74
2021/12/11 01:51:48;;;;;;;18.43;16.07;;;0.50;99.90;;;;;;2613284;54;20423;-74
2021/12/11 01:54:30;;;;;;;17.47;15.40;;;0.40;99.90;;;;;;2612602;54;20445;-74
2021/12/11 01:57:01;;;;;;;22.07;17.97;;;0.70;99.90;;;;;;2610110;47;20478;-76
2021/12/11 01:59:34;;;;;;;19.17;16.40;;;0.70;99.90;;;;;;2609450;54;20977;-74
2021/12/11 02:02:06;;;;;;;20.90;16.43;;;0.60;99.90;;;;;;2609390;47;20402;-74
2021/12/11 02:04:39;;;;;;;20.83;16.63;;;0.70;99.90;;;;;;2613190;54;20392;-74
2021/12/11 02:07:10;;;;;;;18.13;16.23;;;0.50;99.90;;;;;;2612705;47;20398;-75
2021/12/11 02:09:38;;;;;;;19.40;16.07;;;0.50;99.90;;;;;;2613549;54;20422;-78
2021/12/11 02:12:11;;;;;;;17.90;15.43;;;0.60;99.90;;;;;;2613186;47;20402;-75
2021/12/11 02:14:42;;;;;;;20.23;17.00;;;0.60;99.90;;;;;;2613707;54;20417;-77
2021/12/11 02:17:23;;;;;;;19.63;16.33;;;0.60;99.90;;;;;;2613069;54;20426;-76
2021/12/11 02:19:51;;;;;;;18.47;15.87;;;0.60;99.90;;;;;;2614608;54;20402;-75
2021/12/11 02:22:23;;;;;;;31.60;16.37;;;0.60;99.90;;;;;;2612436;46;20446;-76
2021/12/11 02:24:53;;;;;;;19.43;15.60;;;0.00;99.90;;;;;;2613747;54;21013;-76
2021/12/11 02:27:34;;;;;;;23.37;16.63;;;-0.10;99.90;;;;;;2611380;54;20382;-76
2021/12/11 02:30:16;;;;;;;22.87;16.53;;;0.10;99.90;;;;;;2615471;54;20402;-75
2021/12/11 02:32:48;;;;;;;31.20;18.67;;;-0.10;99.90;;;;;;2614710;54;20415;-76
2021/12/11 02:35:39;;;;;;;21.90;16.67;;;-0.20;99.90;;;;;;2613102;47;20412;-75
2021/12/11 02:38:19;;;;;;;22.17;17.47;;;-0.20;99.90;;;;;;2611221;47;20398;-74
2021/12/11 02:41:10;;;;;;;21.30;16.73;;;-0.40;99.90;;;;;;2613019;54;20410;-74
2021/12/11 02:43:44;;;;;;;21.57;17.23;;;-0.20;99.90;;;;;;2613000;54;20390;-79
2021/12/11 02:46:20;;;;;;;22.67;17.00;;;0.50;99.90;;;;;;2613627;54;20441;-76
2021/12/11 02:49:04;;;;;;;19.00;17.00;;;0.50;99.90;;;;;;2613289;39;20790;-76
2021/12/11 02:51:38;;;;;;;17.83;15.97;;;0.60;99.90;;;;;;2614452;47;20980;-76
2021/12/11 02:54:09;;;;;;;27.53;17.10;;;0.50;99.90;;;;;;2613806;54;20399;-75
2021/12/11 02:56:43;;;;;;;25.30;17.50;;;0.20;99.90;;;;;;2612149;39;20890;-75
2021/12/11 02:59:15;;;;;;;21.10;17.00;;;0.00;99.90;;;;;;2613160;54;20416;-77
2021/12/11 03:01:48;;;;;;;31.70;18.30;;;-0.20;99.90;;;;;;2610242;54;20411;-75
2021/12/11 03:04:23;;;;;;;23.03;17.03;;;0.00;99.90;;;;;;2611225;54;20955;-76
2021/12/11 03:06:52;;;;;;;25.77;18.20;;;0.40;99.90;;;;;;2615035;39;20794;-75
2021/12/11 03:09:25;;;;;;;21.83;17.40;;;0.50;99.90;;;;;;2614573;54;20394;-76
2021/12/11 03:11:55;;;;;;;19.80;16.00;;;0.30;99.90;;;;;;2613956;54;20942;-76
2021/12/11 03:14:23;;;;;;;22.80;17.70;;;0.70;99.90;;;;;;2613614;54;20412;-75
2021/12/11 03:16:50;;;;;;;21.47;17.37;;;0.50;99.90;;;;;;2613701;54;20466;-77
2021/12/11 03:19:23;;;;;;;20.87;17.60;;;0.20;99.90;;;;;;2615307;54;20401;-76
2021/12/11 03:21:50;;;;;;;22.43;17.00;;;0.00;99.90;;;;;;2614928;47;20923;-73
2021/12/11 03:24:17;;;;;;;25.33;18.10;;;0.10;99.90;;;;;;2613370;47;21010;-74
2021/12/11 03:26:50;;;;;;;20.57;17.13;;;0.10;99.90;;;;;;2613420;46;20404;-76
2021/12/11 03:29:16;;;;;;;27.93;17.80;;;0.20;99.90;;;;;;2614910;54;20505;-75
2021/12/11 03:31:43;;;;;;;25.20;19.80;;;0.10;99.90;;;;;;2612012;47;20434;-76
2021/12/11 03:34:24;;;;;;;24.80;18.60;;;0.30;99.90;;;;;;2613248;54;20498;-75
2021/12/11 03:36:51;;;;;;;40.67;21.43;;;0.50;99.90;;;;;;2612685;54;20423;-76
2021/12/11 03:39:27;;;;;;;36.83;20.63;;;0.50;99.90;;;;;;2614289;39;20717;-76
2021/12/11 03:41:55;;;;;;;32.27;21.13;;;0.70;99.90;;;;;;2612370;54;20422;-77
2021/12/11 03:44:23;;;;;;;31.60;20.47;;;0.30;99.90;;;;;;2613586;54;20954;-75
2021/12/11 03:46:52;;;;;;;32.67;19.97;;;0.30;99.90;;;;;;2613925;46;21094;-74
2021/12/11 03:49:22;;;;;;;41.10;22.30;;;0.30;99.90;;;;;;2614057;47;20418;-75
2021/12/11 03:51:51;;;;;;;37.43;22.17;;;0.30;99.90;;;;;;2612416;54;20421;-75
2021/12/11 03:54:23;;;;;;;30.90;20.80;;;0.40;99.90;;;;;;2615421;54;20410;-75
2021/12/11 03:56:50;;;;;;;30.10;21.10;;;0.20;99.90;;;;;;2612113;47;20426;-77
2021/12/11 03:59:16;;;;;;;43.43;20.80;;;0.50;99.90;;;;;;2608857;47;20458;-75
2021/12/11 04:01:58;;;;;;;52.43;24.30;;;0.80;99.90;;;;;;2610468;54;20522;-76
2021/12/11 04:04:28;;;;;;;74.83;25.27;;;1.20;99.90;;;;;;2613954;54;20526;-75
2021/12/11 04:06:56;;;;;;;74.80;25.83;;;0.80;99.90;;;;;;2614202;54;20402;-75
2021/12/11 04:09:24;;;;;;;54.93;25.50;;;1.10;99.90;;;;;;2613655;47;20571;-75
2021/12/11 04:11:52;;;;;;;56.40;24.73;;;1.10;99.90;;;;;;2613583;46;20404;-74
2021/12/11 04:14:22;;;;;;;94.50;25.57;;;1.00;99.90;;;;;;2612111;54;20479;-75
2021/12/11 04:16:50;;;;;;;83.93;26.50;;;0.80;99.90;;;;;;2614120;54;20503;-75
2021/12/11 04:19:16;;;;;;;67.90;27.30;;;0.90;99.90;;;;;;2614922;54;20391;-75
2021/12/11 04:21:42;;;;;;;71.10;29.20;;;1.20;99.90;;;;;;2613969;54;20604;-75
2021/12/11 04:24:11;;;;;;;54.67;24.70;;;1.00;99.90;;;;;;2609266;47;20443;-75
2021/12/11 04:26:39;;;;;;;49.50;23.80;;;1.00;99.90;;;;;;2612073;54;20400;-76
2021/12/11 04:29:06;;;;;;;47.83;25.70;;;0.70;99.90;;;;;;2610236;54;20540;-76
2021/12/11 04:31:35;;;;;;;56.33;26.93;;;0.80;99.90;;;;;;2613273;54;21052;-75
2021/12/11 04:34:07;;;;;;;45.63;24.60;;;0.90;99.90;;;;;;2613574;47;20427;-74
2021/12/11 04:36:41;;;;;;;50.30;27.10;;;0.90;99.90;;;;;;2613966;54;20426;-75
2021/12/11 04:39:11;;;;;;;41.03;25.60;;;0.60;99.90;;;;;;2613760;39;20818;-75
2021/12/11 04:41:48;;;;;;;46.77;27.57;;;0.60;99.90;;;;;;2612800;54;20411;-76
2021/12/11 04:44:36;;;;;;;54.73;27.93;;;0.40;99.90;;;;;;2614484;46;20432;-75
2021/12/11 04:47:06;;;;;;;41.80;27.37;;;0.80;99.90;;;;;;2613640;54;20398;-75
2021/12/11 04:49:43;;;;;;;42.00;25.70;;;0.90;99.90;;;;;;2614080;54;20426;-74
2021/12/11 04:52:27;;;;;;;40.37;25.90;;;0.70;99.90;;;;;;2614788;47;20422;-78
2021/12/11 05:00:25;;;;;;;52.47;25.90;;;0.80;99.90;;;;;;2608635;54;20158;-75
2021/12/11 05:03:31;;;;;;;44.80;25.53;;;0.80;99.90;;;;;;2612887;39;20763;-74
2021/12/11 05:11:09;;;;;;;61.33;31.87;;;0.60;99.90;;;;;;2611637;47;20480;-75
2021/12/11 05:13:35;;;;;;;47.90;25.40;;;0.60;99.90;;;;;;2611740;54;20420;-75
2021/12/11 05:16:08;;;;;;;47.33;27.97;;;0.60;99.90;;;;;;2613009;39;20825;-78
2021/12/11 05:18:38;;;;;;;50.50;28.60;;;1.00;99.90;;;;;;2613466;39;21185;-74
2021/12/11 05:21:09;;;;;;;54.83;27.63;;;1.10;99.90;;;;;;2612550;54;20447;-75
2021/12/11 05:23:35;;;;;;;65.27;30.23;;;1.30;99.90;;;;;;2613392;47;20415;-75
2021/12/11 05:26:01;;;;;;;40.10;24.80;;;0.90;99.90;;;;;;2613918;39;21108;-75
2021/12/11 05:28:27;;;;;;;61.20;28.20;;;0.60;99.90;;;;;;2612408;54;20426;-77
2021/12/11 05:30:55;;;;;;;74.87;30.07;;;0.80;99.90;;;;;;2610453;54;20534;-75
2021/12/11 05:33:23;;;;;;;32.87;17.00;;;0.90;99.90;;;;;;2612108;54;20551;-75
2021/12/11 05:35:49;;;;;;;38.83;23.00;;;0.80;99.90;;;;;;2613928;47;20486;-75
2021/12/11 05:38:17;;;;;;;61.77;28.63;;;0.70;99.90;;;;;;2612265;54;20391;-75
2021/12/11 05:40:46;;;;;;;62.63;29.47;;;0.70;99.90;;;;;;2611686;47;20411;-77
2021/12/11 05:43:13;;;;;;;72.03;31.87;;;0.80;99.90;;;;;;2611546;47;20510;-76
2021/12/11 05:45:42;;;;;;;56.80;30.60;;;1.20;99.90;;;;;;2615383;54;20387;-77
2021/12/11 05:48:09;;;;;;;48.37;27.43;;;1.50;99.90;;;;;;2613017;54;20407;-74
2021/12/11 05:50:43;;;;;;;35.90;21.53;;;1.50;99.90;;;;;;2611391;51;20493;-75
2021/12/11 05:53:09;;;;;;;51.17;25.70;;;1.10;99.90;;;;;;2613029;47;20502;-75
2021/12/11 05:55:38;;;;;;;64.50;30.40;;;0.90;99.90;;;;;;2614011;54;20411;-75
2021/12/11 05:58:11;;;;;;;53.43;32.13;;;0.90;99.90;;;;;;2609753;47;20439;-75
2021/12/11 06:00:46;;;;;;;57.90;28.90;;;1.30;99.90;;;;;;2609363;47;20411;-76
2021/12/11 06:03:13;;;;;;;48.13;27.17;;;1.80;99.90;;;;;;2613744;39;20806;-75
2021/12/11 06:05:40;;;;;;;66.10;29.10;;;1.40;99.90;;;;;;2614873;54;20409;-76
2021/12/11 06:08:07;;;;;;;62.83;31.73;;;1.10;99.90;;;;;;2614601;54;20383;-77
2021/12/11 06:10:33;;;;;;;67.93;29.83;;;1.30;99.90;;;;;;2613346;54;20407;-74
2021/12/11 06:13:01;;;;;;;41.07;19.80;;;1.10;99.90;;;;;;2612833;47;20414;-77
2021/12/11 06:15:31;;;;;;;67.60;31.70;;;1.00;99.90;;;;;;2615366;47;20950;-75
2021/12/11 06:17:57;;;;;;;55.97;27.27;;;1.00;99.90;;;;;;2614383;54;22430;-75
2021/12/11 06:20:28;;;;;;;39.83;20.27;;;1.00;99.90;;;;;;2615660;54;20426;-74
2021/12/11 06:22:54;;;;;;;80.27;34.63;;;1.00;99.90;;;;;;2613792;39;20827;-76
2021/12/11 06:25:24;;;;;;;40.50;20.93;;;1.00;99.90;;;;;;2614750;54;20475;-77
2021/12/11 06:27:50;;;;;;;35.47;18.57;;;0.90;99.90;;;;;;2613303;54;20427;-75
2021/12/11 06:30:18;;;;;;;39.57;22.23;;;0.90;99.90;;;;;;2613311;54;20947;-74
2021/12/11 06:32:45;;;;;;;73.03;33.93;;;1.00;99.90;;;;;;2614436;54;20971;-75
2021/12/11 06:35:36;;;;;;;45.40;20.37;;;1.10;99.90;;;;;;2615434;47;20399;-75
2021/12/11 06:38:04;;;;;;;52.70;25.47;;;1.10;99.90;;;;;;2612288;47;20428;-76
2021/12/11 06:40:30;;;;;;;53.90;24.73;;;1.00;99.90;;;;;;2614332;47;20430;-76
2021/12/11 06:42:56;;;;;;;74.63;30.40;;;1.10;99.90;;;;;;2611960;54;20391;-75
2021/12/11 06:45:24;;;;;;;58.33;28.97;;;1.20;99.90;;;;;;2614116;54;20424;-75
2021/12/11 06:47:51;;;;;;;72.83;28.60;;;1.20;99.90;;;;;;2614292;47;20534;-75
2021/12/11 06:50:18;;;;;;;83.70;36.57;;;1.30;99.90;;;;;;2611796;47;20426;-76
2021/12/11 06:52:46;;;;;;;88.37;38.30;;;1.40;99.90;;;;;;2612390;54;20415;-76
2021/12/11 06:55:13;;;;;;;81.87;38.43;;;1.40;99.90;;;;;;2614321;54;20427;-78
2021/12/11 06:57:39;;;;;;;86.00;40.47;;;1.40;99.90;;;;;;2609953;47;20451;-76
2021/12/11 07:00:07;;;;;;;97.20;39.33;;;1.60;99.90;;;;;;2607543;47;20420;-77
2021/12/11 07:02:33;;;;;;;84.43;38.90;;;1.50;99.90;;;;;;2611260;54;20985;-76
2021/12/11 07:05:00;;;;;;;79.43;41.53;;;2.10;99.90;;;;;;2612679;54;20430;-76
2021/12/11 07:07:32;;;;;;;84.90;37.40;;;1.70;99.90;;;;;;2611966;48;20406;-75
2021/12/11 07:09:59;;;;;;;72.73;34.10;;;1.40;99.90;;;;;;2612403;54;20407;-77
2021/12/11 07:12:26;;;;;;;64.03;24.57;;;1.40;99.90;;;;;;2612812;54;20412;-76
2021/12/11 07:14:52;;;;;;;68.10;33.27;;;1.30;99.90;;;;;;2613903;46;20455;-77
2021/12/11 07:17:22;;;;;;;100.17;37.47;;;1.50;99.90;;;;;;2611490;54;20500;-78
2021/12/11 07:19:49;;;;;;;78.70;40.80;;;1.40;99.90;;;;;;2613000;54;20382;-76
2021/12/11 07:22:18;;;;;;;50.17;24.77;;;1.70;99.90;;;;;;2612605;39;20833;-76
2021/12/11 07:25:18;;;;;;;77.53;37.90;;;1.40;99.90;;;;;;2611374;54;20383;-74
2021/12/11 07:27:45;;;;;;;63.03;33.90;;;1.30;99.90;;;;;;2608783;54;20462;-75
2021/12/11 07:30:12;;;;;;;91.33;42.17;;;1.60;99.90;;;;;;2609847;39;20981;-75
2021/12/11 07:32:38;;;;;;;91.57;37.23;;;1.60;99.90;;;;;;2611240;54;20387;-75
2021/12/11 07:35:05;;;;;;;70.83;29.00;;;1.50;99.90;;;;;;2611883;54;22274;-75
2021/12/11 07:37:31;;;;;;;65.90;35.07;;;1.50;99.90;;;;;;2611435;54;20415;-76
2021/12/11 07:39:57;;;;;;;41.23;22.93;;;1.50;99.90;;;;;;2611839;54;20814;-76
2021/12/11 07:42:23;;;;;;;52.73;26.70;;;1.50;99.90;;;;;;2613273;54;20411;-74
2021/12/11 07:44:49;;;;;;;68.37;34.37;;;1.40;99.90;;;;;;2613918;47;20435;-76
2021/12/11 07:47:15;;;;;;;84.17;37.43;;;1.50;99.90;;;;;;2613000;54;20415;-75
2021/12/11 07:49:41;;;;;;;44.13;23.80;;;1.60;99.90;;;;;;2613881;51;20411;-75
2021/12/11 07:52:07;;;;;;;88.87;39.37;;;1.60;99.90;;;;;;2611709;54;20423;-77
2021/12/11 07:54:33;;;;;;;76.43;33.30;;;1.70;99.90;;;;;;2613769;54;20390;-77
2021/12/11 07:57:00;;;;;;;64.50;32.57;;;1.80;99.90;;;;;;2614200;54;20424;-75
2021/12/11 07:59:26;;;;;;;77.20;36.80;;;1.90;99.90;;;;;;2613875;47;20415;-75
2021/12/11 08:01:53;;;;;;;77.70;38.47;;;1.70;99.90;;;;;;2612214;54;20419;-76
2021/12/11 08:04:21;;;;;;;71.90;38.90;;;1.80;99.90;;;;;;2613474;54;20403;-76
2021/12/11 08:06:47;;;;;;;70.57;39.30;;;2.00;99.90;;;;;;2615482;54;20404;-75
2021/12/11 08:09:18;;;;;;;82.77;36.83;;;2.00;99.90;;;;;;2615999;39;20808;-75
2021/12/11 08:11:45;;;;;;;63.87;32.80;;;2.20;99.90;;;;;;2615675;47;20506;-74
2021/12/11 08:14:12;;;;;;;64.23;33.63;;;2.20;99.90;;;;;;2617030;31;20883;-75
2021/12/11 08:16:46;;;;;;;66.03;31.73;;;2.10;99.90;;;;;;2616039;39;20817;-76
2021/12/11 08:19:24;;;;;;;67.13;37.17;;;1.90;99.90;;;;;;2613373;54;20457;-74
2021/12/11 08:21:53;;;;;;;75.40;38.80;;;1.90;99.90;;;;;;2614359;47;20963;-76
2021/12/11 08:24:19;;;;;;;81.47;39.53;;;2.10;99.90;;;;;;2615089;53;20413;-75
2021/12/11 08:26:46;;;;;;;40.10;23.87;;;2.40;99.90;;;;;;2615497;54;20428;-75
2021/12/11 08:29:16;;;;;;;73.50;37.00;;;2.20;99.90;;;;;;2615068;54;20507;-75
2021/12/11 08:31:44;;;;;;;81.40;40.60;;;2.30;99.90;;;;;;2613580;47;21113;-76
2021/12/11 08:34:10;;;;;;;76.50;38.97;;;2.30;99.90;;;;;;2613861;54;20402;-76
2021/12/11 08:36:37;;;;;;;65.43;38.30;;;2.50;99.90;;;;;;2614202;54;20419;-75
2021/12/11 08:39:06;;;;;;;63.97;35.00;;;2.90;99.90;;;;;;2613519;47;20406;-75
2021/12/11 08:41:35;;;;;;;69.60;38.70;;;3.40;99.90;;;;;;2614574;47;20960;-76
2021/12/11 08:44:08;;;;;;;79.50;38.23;;;2.70;99.90;;;;;;2613399;54;20453;-74
2021/12/11 08:46:36;;;;;;;67.50;31.93;;;2.90;99.90;;;;;;2615016;54;21003;-74
2021/12/11 08:49:08;;;;;;;58.13;32.23;;;2.50;99.90;;;;;;2614665;54;20967;-74
2021/12/11 08:51:40;;;;;;;51.10;26.80;;;2.50;99.90;;;;;;2611483;54;20423;-75
2021/12/11 08:54:08;;;;;;;60.70;34.80;;;2.60;99.90;;;;;;2615178;54;20411;-73
2021/12/11 08:56:35;;;;;;;68.87;34.73;;;3.00;99.90;;;;;;2615435;54;20435;-75
2021/12/11 08:59:07;;;;;;;67.03;33.57;;;3.30;99.90;;;;;;2615413;54;20525;-75
2021/12/11 09:01:42;;;;;;;73.47;43.57;;;3.20;99.90;;;;;;2613804;47;20431;-75
2021/12/11 09:04:20;;;;;;;69.73;35.83;;;3.70;99.90;;;;;;2612560;47;20411;-75
2021/12/11 09:07:34;;;;;;;65.47;36.17;;;3.50;99.90;;;;;;2614009;54;20431;-74
2021/12/11 09:10:12;;;;;;;68.30;36.27;;;3.50;99.90;;;;;;2613454;47;20988;-74
2021/12/11 09:12:48;;;;;;;50.00;28.57;;;3.40;99.90;;;;;;2613003;54;20430;-79
2021/12/11 09:15:20;;;;;;;65.40;36.00;;;3.50;99.90;;;;;;2612709;54;20464;-74
2021/12/11 09:17:58;;;;;;;54.27;27.57;;;3.70;99.90;;;;;;2613372;47;20504;-74
2021/12/11 09:20:42;;;;;;;67.50;36.87;;;3.60;99.90;;;;;;2613179;47;20967;-76
2021/12/11 09:23:25;;;;;;;70.43;36.20;;;3.80;99.90;;;;;;2612259;47;20944;-76
2021/12/11 09:26:05;;;;;;;78.73;37.43;;;3.90;99.90;;;;;;2613554;54;20407;-75
2021/12/11 09:28:31;;;;;;;65.63;38.17;;;4.20;99.90;;;;;;2613185;54;20413;-75
2021/12/11 09:31:16;;;;;;;74.53;40.97;;;4.30;99.90;;;;;;2613076;47;20498;-77
2021/12/11 09:33:57;;;;;;;73.00;35.43;;;4.80;99.90;;;;;;2611116;47;20396;-77
2021/12/11 09:36:33;;;;;;;77.77;38.93;;;4.50;99.90;;;;;;2613120;51;20453;-75
2021/12/11 09:39:34;;;;;;;75.93;39.30;;;4.40;99.90;;;;;;2612850;39;20760;-75
2021/12/11 09:42:00;;;;;;;71.00;38.57;;;4.50;99.90;;;;;;2613739;54;20408;-75
2021/12/11 09:44:42;;;;;;;86.53;37.93;;;4.20;99.90;;;;;;2611612;39;20883;-75
2021/12/11 09:47:16;;;;;;;77.30;36.07;;;4.00;99.90;;;;;;2629005;36;20906;-75
2021/12/11 09:49:46;;;;;;;79.53;38.43;;;4.00;99.90;;;;;;2614408;54;20402;-77
2021/12/11 09:52:23;;;;;;;71.63;35.70;;;4.10;99.90;;;;;;2613493;54;20414;-75
2021/12/11 09:54:59;;;;;;;81.90;37.80;;;4.10;99.90;;;;;;2615241;39;20842;-74
2021/12/11 09:57:32;;;;;;;79.00;38.43;;;4.50;99.90;;;;;;2613935;47;20415;-74
2021/12/11 10:00:04;;;;;;;64.80;37.20;;;4.50;99.90;;;;;;2610946;51;20415;-77
2021/12/11 10:02:43;;;;;;;67.50;35.43;;;4.00;99.90;;;;;;2610960;54;20407;-72
2021/12/11 10:05:36;;;;;;;92.80;37.50;;;3.90;99.90;;;;;;2612307;54;20988;-74
2021/12/11 10:08:27;;;;;;;73.17;37.00;;;4.40;99.90;;;;;;2613754;54;20383;-74
2021/12/11 10:11:11;;;;;;;83.20;36.53;;;4.70;99.90;;;;;;2614335;39;20757;-76
2021/12/11 10:13:59;;;;;;;78.33;36.50;;;4.60;99.90;;;;;;2613799;47;20889;-76
2021/12/11 10:16:31;;;;;;;68.83;31.27;;;4.60;99.90;;;;;;2615273;39;20871;-75
2021/12/11 10:18:58;;;;;;;76.47;37.57;;;4.50;99.90;;;;;;2611725;54;20419;-78
2021/12/11 10:21:27;;;;;;;73.10;34.93;;;4.40;99.90;;;;;;2611368;47;20411;-75
2021/12/11 10:23:58;;;;;;;79.73;36.83;;;4.20;99.90;;;;;;2611440;46;20428;-73
2021/12/11 10:26:26;;;;;;;77.13;37.40;;;4.20;99.90;;;;;;2614169;47;20459;-74
2021/12/11 10:28:57;;;;;;;80.03;35.07;;;4.10;99.90;;;;;;2611608;47;20471;-75
2021/12/11 10:31:38;;;;;;;68.57;33.93;;;4.40;99.90;;;;;;2612759;52;20431;-75
2021/12/11 10:34:09;;;;;;;81.03;36.67;;;4.30;99.90;;;;;;2612879;39;20822;-75
2021/12/11 10:36:44;;;;;;;59.60;30.93;;;4.30;99.90;;;;;;2611661;47;20475;-74
2021/12/11 10:39:13;;;;;;;77.87;36.50;;;4.10;99.90;;;;;;2611142;47;20997;-76
2021/12/11 10:41:40;;;;;;;71.17;35.80;;;4.10;99.90;;;;;;2610760;54;20534;-75
2021/12/11 10:44:22;;;;;;;65.67;28.80;;;4.30;99.90;;;;;;2612327;54;20412;-74
2021/12/11 10:47:00;;;;;;;81.27;35.10;;;4.40;99.90;;;;;;2613584;54;20460;-73
2021/12/11 10:49:27;;;;;;;73.70;32.80;;;4.40;99.90;;;;;;2614128;54;20398;-78
2021/12/11 10:51:59;;;;;;;72.97;34.23;;;4.50;99.90;;;;;;2616763;54;20399;-78
2021/12/11 10:54:26;;;;;;;68.77;32.77;;;4.40;99.90;;;;;;2616786;47;20431;-79
2021/12/11 10:56:52;;;;;;;75.53;37.00;;;4.40;99.90;;;;;;2616063;47;20459;-80
2021/12/11 10:59:23;;;;;;;75.77;36.13;;;4.50;99.90;;;;;;2614126;39;20562;-75
2021/12/11 11:02:14;;;;;;;71.13;32.93;;;4.30;99.90;;;;;;2611666;54;20435;-76
2021/12/11 11:04:52;;;;;;;73.13;32.40;;;4.40;99.90;;;;;;2609894;39;20943;-75
2021/12/11 11:07:21;;;;;;;66.80;32.40;;;4.30;99.90;;;;;;2610094;47;21089;-75
2021/12/11 11:09:49;;;;;;;67.43;32.93;;;4.00;99.90;;;;;;2614187;54;20418;-75
2021/12/11 11:12:21;;;;;;;63.53;30.53;;;4.20;99.90;;;;;;2609588;54;20429;-75
2021/12/11 11:14:52;;;;;;;53.70;29.20;;;4.60;99.90;;;;;;2612305;54;20416;-76
2021/12/11 11:17:25;;;;;;;57.97;30.67;;;4.60;99.90;;;;;;2612306;54;20534;-74
2021/12/11 11:19:52;;;;;;;58.63;27.30;;;4.40;99.90;;;;;;2613661;47;20458;-74
2021/12/11 11:22:23;;;;;;;55.30;28.53;;;4.60;99.90;;;;;;2612936;39;20792;-74
2021/12/11 11:25:18;;;;;;;61.60;29.93;;;4.90;99.90;;;;;;2612759;54;20396;-76
2021/12/11 11:27:52;;;;;;;56.93;29.27;;;5.00;99.90;;;;;;2610972;54;20423;-74
2021/12/11 11:30:21;;;;;;;62.30;31.27;;;5.20;99.90;;;;;;2611363;47;20419;-75
2021/12/11 11:32:48;;;;;;;55.60;30.30;;;5.20;99.90;;;;;;2611595;54;20454;-75
2021/12/11 11:35:18;;;;;;;61.03;29.90;;;4.80;99.90;;;;;;2611522;54;20410;-75
2021/12/11 11:37:49;;;;;;;59.40;29.97;;;4.90;99.90;;;;;;2611715;54;20970;-74
2021/12/11 11:40:25;;;;;;;56.33;29.30;;;4.70;99.90;;;;;;2613153;54;20411;-75
2021/12/11 11:42:52;;;;;;;57.50;30.07;;;4.80;99.90;;;;;;2612030;54;20429;-74
2021/12/11 11:45:19;;;;;;;64.83;30.87;;;4.80;99.90;;;;;;2614019;54;20427;-75
2021/12/11 11:47:45;;;;;;;57.37;32.00;;;4.90;99.90;;;;;;2613848;54;20404;-74
2021/12/11 11:50:17;;;;;;;58.27;29.40;;;5.20;99.90;;;;;;2612000;47;20482;-73
2021/12/11 11:52:44;;;;;;;54.40;29.33;;;5.40;99.90;;;;;;2610833;54;20407;-74
2021/12/11 11:55:20;;;;;;;59.00;29.30;;;4.90;99.90;;;;;;2611544;54;20983;-73
2021/12/11 11:57:48;;;;;;;57.73;28.77;;;5.40;99.90;;;;;;2610727;46;20464;-74
2021/12/11 12:00:25;;;;;;;57.77;27.83;;;5.60;99.90;;;;;;2614120;47;20449;-73
2021/12/11 12:02:52;;;;;;;57.03;28.30;;;5.40;99.90;;;;;;2611512;54;20955;-74
2021/12/11 12:05:20;;;;;;;57.13;28.50;;;5.00;99.90;;;;;;2612018;54;20481;-74
2021/12/11 12:07:47;;;;;;;57.77;28.87;;;4.80;99.90;;;;;;2610343;39;20975;-74
2021/12/11 12:10:21;;;;;;;53.03;26.60;;;5.00;99.90;;;;;;2611966;54;20895;-75
2021/12/11 12:12:48;;;;;;;51.00;27.23;;;5.40;99.90;;;;;;2611401;54;20435;-75
2021/12/11 12:15:21;;;;;;;52.00;25.20;;;5.40;99.90;;;;;;2613976;54;20455;-74
2021/12/11 12:17:47;;;;;;;56.80;29.77;;;5.50;99.90;;;;;;2614035;31;20969;-73
2021/12/11 12:20:16;;;;;;;54.63;26.73;;;5.40;99.90;;;;;;2612705;54;20413;-74
2021/12/11 12:22:45;;;;;;;55.50;27.77;;;5.40;99.90;;;;;;2610260;54;20387;-75
2021/12/11 12:25:13;;;;;;;61.93;30.03;;;5.40;99.90;;;;;;2610838;54;20534;-76
2021/12/11 12:27:42;;;;;;;49.23;26.80;;;5.40;99.90;;;;;;2609531;54;20415;-74
2021/12/11 12:30:16;;;;;;;50.67;27.23;;;5.10;99.90;;;;;;2611686;54;20399;-74
2021/12/11 12:32:42;;;;;;;49.67;26.20;;;5.40;99.90;;;;;;2609328;47;20403;-77
2021/12/11 12:35:12;;;;;;;50.07;25.03;;;6.20;99.90;;;;;;2610640;47;20499;-74
2021/12/11 12:37:39;;;;;;;39.73;25.83;;;6.00;99.90;;;;;;2610801;54;20434;-73
2021/12/11 12:40:14;;;;;;;48.63;27.13;;;5.90;99.90;;;;;;2614894;54;20403;-73
2021/12/11 12:42:55;;;;;;;49.47;26.70;;;5.60;99.90;;;;;;2609986;54;20403;-75
2021/12/11 12:45:26;;;;;;;51.57;28.20;;;5.50;99.90;;;;;;2610582;46;20518;-74
2021/12/11 12:48:05;;;;;;;49.67;27.90;;;6.00;99.90;;;;;;2611224;54;20543;-73
2021/12/11 12:50:35;;;;;;;48.47;27.67;;;6.00;99.90;;;;;;2610034;47;21010;-74
2021/12/11 12:53:02;;;;;;;52.00;26.43;;;5.80;99.90;;;;;;2609951;54;20477;-76
2021/12/11 12:55:39;;;;;;;46.00;25.40;;;5.90;99.90;;;;;;2612171;39;22581;-74
2021/12/11 12:58:09;;;;;;;46.17;25.77;;;6.40;99.90;;;;;;2612684;54;20499;-75
2021/12/11 13:00:56;;;;;;;53.77;29.60;;;7.20;99.90;;;;;;2610457;47;20428;-75
2021/12/11 13:03:26;;;;;;;52.07;27.70;;;7.50;99.90;;;;;;2607896;47;20494;-74
2021/12/11 13:05:57;;;;;;;56.60;28.97;;;7.70;99.90;;;;;;2612808;54;20624;-74
2021/12/11 13:08:29;;;;;;;56.23;31.20;;;7.20;99.90;;;;;;2611678;54;20407;-76
2021/12/11 13:11:01;;;;;;;51.83;29.87;;;6.90;99.90;;;;;;2611757;54;20431;-74